Etusivu
METAR-TAF:

METAR-TAF

Lentoasemat :

Friday Harbor Airport

Friday Harbor, Washington, Yhdysvallat

Leveyspiiri: 48-31-13N, Pituuspiiri: 123-01-31W, korkeus merenpinnasta: 33 m

Tämänhetkinen sää

Tämä raportti tehtiin 31 minuuttia sitten, kello 21.53 UTC
Tuuli 6 kn pohjoisesta
Lämpötila 10°C
Kosteus 62%
Ilmanpaine 1024 hPa
Näkyvyys: 16.1 km
Hajonneita pilviä 9500 ft:n korkeudessa

METAR: KFHR 112153Z AUTO 36006KT 10SM BKN095 10/03 A3024 RMK AO2 SLP241 T01000028

Aika: 14:24 (22:24 UTC)


TAF: puuttuu

Säähavainnot ja -ennusteet yli 4000 lentoasemalta (METAR- ja TAF-raportit).

Käytössä olevat sääasemat on merkitty karttaan keltaisilla ja punaisilla pisteillä.

Aseta hiiri pisteen päälle nähdäksesi sääaseman nimen.

Klikkaa sitten nähdäksesi säähavainnot ja -ennusteet.

Kartan vaihtaminen: klikkaa mustalla rastilla varustettuja vihreitä pisteitä, niin voit zoomata sisään; viivalla varustettua vihreää pistettä, niin voit zoomata ulos tai vihreitä nuolia, niin pääset viereisille kartoille.


METAR-TAF: